Aérodrome :
LOGIN :

S'inscrire | Disclaimer

   EN    FR    IT 

 










Légende :    VFR   VFR Marginal   IFR   IFR Intensif   IFR Très Intensif
Visi : 
Plafond : 
>= 8 km
>= 3000ft
5 à 8 km
1000 à 3000 ft
1500m à 5 km
500 à 1000 ft
800 à 1500m
200 à 500 ft
< 800m
< 200 ft
Symboles :   Orages  Brouillard  Fortes neiges  Fortes précipitations  Vent > 20 kt
SIGMETs :   Divers  Orages  Givrage  Turbulence  Onde Orograph.  Cendres Volcan.






- Altitude de l'aérodrome : 177 ft
- Code IATA : AYT


LTAI - Antalya

DERNIER METAR :
  • 021550Z 35004KT 9999 SCT030 14/10 Q1018 NOSIG RMK RWY18C 34003KT 320V020 RWY36R 36004KT RWY18L 04001KT

METARs EXPIRÉS :
  • 021520Z VRB02KT 9999 SCT030 15/10 Q1018 NOSIG RMK RWY18C VRB01KT RWY36R 33003KT RWY18L 00000KT
  • 021450Z VRB01KT 9999 SCT030 16/10 Q1018 NOSIG RMK RWY18C 00000KT RWY36R 00000KT RWY18L VRB02KT
  • 021420Z 21003KT 150V250 9999 SCT030 17/10 Q1018 NOSIG
  • 021350Z 18005KT 9999 SCT030 18/10 Q1018 NOSIG RMK RWY18C 17004KT RWY36R 17004KT RWY18L 18005KT 150V210
  • 021320Z 19004KT 150V230 9999 SCT030 19/10 Q1017 NOSIG RMK RWY18C 17004KT RWY36R 18004KT 140V210 RWY18L 20005KT

TAF TAF LTAI
Valide du 02 à 12h jusqu'au 03 à 12h UTC


021040Z 0212/0312 VRB02KT 9999 SCT030
BECMG 0218/0222 -SHRA FEW020CB BKN030



MET'MAP, la Météo Aéronautique d'un coup d'oeil ! - Copyright ORBIFLY Décembre 2007 - Disclaimer

ORBIFLY MET'MAP TEAM :

Programmation & Développement : Alexandra Zaïnal
Sur une idée originale de : Baudouin d'Aumeries
Assistance à la programmation : Marc-Olivier Méhu
Soutien technique & logistique : Manuel Goepfert

Contact : metmap@orbifly.com




SOURCES & CREDITS :

   NOAA